sensor_id;sensor_type;location;lat;lon;timestamp;P1;durP1;ratioP1;P2;durP2;ratioP2
60730;SDS011;46580;52.114;11.674;2023-11-22T00:00:02;2.20;;;1.60;;
60730;SDS011;46580;52.114;11.674;2023-11-22T00:02:28;2.00;;;1.10;;
60730;SDS011;46580;52.114;11.674;2023-11-22T00:04:54;5.50;;;1.30;;
60730;SDS011;46580;52.114;11.674;2023-11-22T00:07:20;2.17;;;1.17;;
60730;SDS011;46580;52.114;11.674;2023-11-22T00:09:46;1.90;;;1.37;;
60730;SDS011;46580;52.114;11.674;2023-11-22T00:12:12;2.70;;;1.07;;
60730;SDS011;46580;52.114;11.674;2023-11-22T00:14:38;1.17;;;0.93;;
60730;SDS011;46580;52.114;11.674;2023-11-22T00:17:03;2.77;;;1.53;;
60730;SDS011;46580;52.114;11.674;2023-11-22T00:19:29;2.43;;;1.43;;
60730;SDS011;46580;52.114;11.674;2023-11-22T00:21:55;3.30;;;1.43;;
60730;SDS011;46580;52.114;11.674;2023-11-22T00:24:21;2.63;;;1.20;;
60730;SDS011;46580;52.114;11.674;2023-11-22T00:26:46;1.57;;;1.07;;
60730;SDS011;46580;52.114;11.674;2023-11-22T00:29:12;2.90;;;1.27;;
60730;SDS011;46580;52.114;11.674;2023-11-22T00:31:37;2.10;;;1.10;;
60730;SDS011;46580;52.114;11.674;2023-11-22T00:34:02;2.87;;;1.60;;
60730;SDS011;46580;52.114;11.674;2023-11-22T00:36:28;3.80;;;1.63;;
60730;SDS011;46580;52.114;11.674;2023-11-22T00:38:54;2.33;;;1.27;;
60730;SDS011;46580;52.114;11.674;2023-11-22T00:41:19;3.17;;;1.40;;
60730;SDS011;46580;52.114;11.674;2023-11-22T00:43:45;1.77;;;1.20;;
60730;SDS011;46580;52.114;11.674;2023-11-22T00:46:12;1.60;;;1.10;;
60730;SDS011;46580;52.114;11.674;2023-11-22T00:48:37;2.50;;;1.57;;
60730;SDS011;46580;52.114;11.674;2023-11-22T00:51:03;2.77;;;1.07;;
60730;SDS011;46580;52.114;11.674;2023-11-22T00:53:33;1.70;;;1.20;;
60730;SDS011;46580;52.114;11.674;2023-11-22T00:56:01;3.47;;;1.30;;
60730;SDS011;46580;52.114;11.674;2023-11-22T00:58:26;2.20;;;1.40;;
60730;SDS011;46580;52.114;11.674;2023-11-22T01:00:52;2.33;;;0.93;;
60730;SDS011;46580;52.114;11.674;2023-11-22T01:03:18;1.60;;;1.50;;
60730;SDS011;46580;52.114;11.674;2023-11-22T01:05:44;2.77;;;1.03;;
60730;SDS011;46580;52.114;11.674;2023-11-22T01:08:09;1.47;;;0.90;;
60730;SDS011;46580;52.114;11.674;2023-11-22T01:10:35;3.70;;;1.50;;
60730;SDS011;46580;52.114;11.674;2023-11-22T01:13:00;1.30;;;0.67;;
60730;SDS011;46580;52.114;11.674;2023-11-22T01:15:26;2.50;;;1.20;;
60730;SDS011;46580;52.114;11.674;2023-11-22T01:17:51;1.13;;;0.90;;
60730;SDS011;46580;52.114;11.674;2023-11-22T01:20:16;1.67;;;1.10;;
60730;SDS011;46580;52.114;11.674;2023-11-22T01:22:42;1.37;;;1.00;;
60730;SDS011;46580;52.114;11.674;2023-11-22T01:25:08;1.33;;;1.10;;
60730;SDS011;46580;52.114;11.674;2023-11-22T01:27:33;0.90;;;0.67;;
60730;SDS011;46580;52.114;11.674;2023-11-22T01:29:59;0.80;;;0.80;;
60730;SDS011;46580;52.114;11.674;2023-11-22T01:32:24;1.27;;;0.80;;
60730;SDS011;46580;52.114;11.674;2023-11-22T01:34:49;1.43;;;1.00;;
60730;SDS011;46580;52.114;11.674;2023-11-22T01:37:15;2.00;;;1.30;;
60730;SDS011;46580;52.114;11.674;2023-11-22T01:39:40;1.43;;;0.70;;
60730;SDS011;46580;52.114;11.674;2023-11-22T01:42:08;0.93;;;0.80;;
60730;SDS011;46580;52.114;11.674;2023-11-22T01:44:34;4.27;;;0.80;;
60730;SDS011;46580;52.114;11.674;2023-11-22T01:46:59;1.17;;;0.80;;
60730;SDS011;46580;52.114;11.674;2023-11-22T01:49:25;1.90;;;0.93;;
60730;SDS011;46580;52.114;11.674;2023-11-22T01:51:51;2.50;;;0.93;;
60730;SDS011;46580;52.114;11.674;2023-11-22T01:54:17;3.67;;;1.07;;
60730;SDS011;46580;52.114;11.674;2023-11-22T01:56:45;1.50;;;1.00;;
60730;SDS011;46580;52.114;11.674;2023-11-22T01:59:10;1.80;;;1.10;;
60730;SDS011;46580;52.114;11.674;2023-11-22T02:01:36;1.07;;;0.93;;
60730;SDS011;46580;52.114;11.674;2023-11-22T02:04:03;2.73;;;0.97;;
60730;SDS011;46580;52.114;11.674;2023-11-22T02:06:29;1.57;;;0.90;;
60730;SDS011;46580;52.114;11.674;2023-11-22T02:08:56;1.50;;;0.70;;
60730;SDS011;46580;52.114;11.674;2023-11-22T02:11:22;2.17;;;1.03;;
60730;SDS011;46580;52.114;11.674;2023-11-22T02:13:49;2.80;;;1.33;;
60730;SDS011;46580;52.114;11.674;2023-11-22T02:16:15;1.87;;;0.80;;
60730;SDS011;46580;52.114;11.674;2023-11-22T02:18:44;2.67;;;1.00;;
60730;SDS011;46580;52.114;11.674;2023-11-22T02:21:10;0.93;;;0.77;;
60730;SDS011;46580;52.114;11.674;2023-11-22T02:23:36;2.87;;;1.27;;
60730;SDS011;46580;52.114;11.674;2023-11-22T02:26:01;3.37;;;1.10;;
60730;SDS011;46580;52.114;11.674;2023-11-22T02:28:27;1.30;;;0.70;;
60730;SDS011;46580;52.114;11.674;2023-11-22T02:30:53;1.47;;;0.90;;
60730;SDS011;46580;52.114;11.674;2023-11-22T02:33:19;4.40;;;1.03;;
60730;SDS011;46580;52.114;11.674;2023-11-22T02:35:45;2.40;;;1.27;;
60730;SDS011;46580;52.114;11.674;2023-11-22T02:38:11;1.17;;;0.83;;
60730;SDS011;46580;52.114;11.674;2023-11-22T02:40:37;1.43;;;0.90;;
60730;SDS011;46580;52.114;11.674;2023-11-22T02:43:03;2.47;;;1.13;;
60730;SDS011;46580;52.114;11.674;2023-11-22T02:45:33;2.00;;;1.30;;
60730;SDS011;46580;52.114;11.674;2023-11-22T02:47:59;2.50;;;0.73;;
60730;SDS011;46580;52.114;11.674;2023-11-22T02:50:26;1.97;;;1.30;;
60730;SDS011;46580;52.114;11.674;2023-11-22T02:52:52;1.20;;;0.73;;
60730;SDS011;46580;52.114;11.674;2023-11-22T02:55:18;1.30;;;0.73;;
60730;SDS011;46580;52.114;11.674;2023-11-22T02:57:44;2.97;;;0.87;;
60730;SDS011;46580;52.114;11.674;2023-11-22T03:00:11;0.97;;;0.87;;
60730;SDS011;46580;52.114;11.674;2023-11-22T03:02:38;1.53;;;1.03;;
60730;SDS011;46580;52.114;11.674;2023-11-22T03:05:06;2.33;;;1.10;;
60730;SDS011;46580;52.114;11.674;2023-11-22T03:07:35;1.20;;;1.10;;
60730;SDS011;46580;52.114;11.674;2023-11-22T03:10:01;2.10;;;1.10;;
60730;SDS011;46580;52.114;11.674;2023-11-22T03:12:27;1.47;;;1.10;;
60730;SDS011;46580;52.114;11.674;2023-11-22T03:14:52;2.07;;;1.27;;
60730;SDS011;46580;52.114;11.674;2023-11-22T03:17:23;1.87;;;1.20;;
60730;SDS011;46580;52.114;11.674;2023-11-22T03:19:49;2.50;;;1.10;;
60730;SDS011;46580;52.114;11.674;2023-11-22T03:22:14;5.23;;;1.17;;
60730;SDS011;46580;52.114;11.674;2023-11-22T03:24:41;2.53;;;1.23;;
60730;SDS011;46580;52.114;11.674;2023-11-22T03:27:07;2.43;;;1.20;;
60730;SDS011;46580;52.114;11.674;2023-11-22T03:29:35;5.27;;;1.07;;
60730;SDS011;46580;52.114;11.674;2023-11-22T03:32:00;2.13;;;0.60;;
60730;SDS011;46580;52.114;11.674;2023-11-22T03:34:26;3.10;;;1.77;;
60730;SDS011;46580;52.114;11.674;2023-11-22T03:36:51;2.93;;;1.00;;
60730;SDS011;46580;52.114;11.674;2023-11-22T03:39:17;1.23;;;0.93;;
60730;SDS011;46580;52.114;11.674;2023-11-22T03:41:42;2.00;;;0.90;;
60730;SDS011;46580;52.114;11.674;2023-11-22T03:44:08;1.63;;;1.20;;
60730;SDS011;46580;52.114;11.674;2023-11-22T03:46:37;1.53;;;1.17;;
60730;SDS011;46580;52.114;11.674;2023-11-22T03:49:04;3.40;;;1.13;;
60730;SDS011;46580;52.114;11.674;2023-11-22T03:51:31;1.70;;;1.17;;
60730;SDS011;46580;52.114;11.674;2023-11-22T03:53:57;7.40;;;1.10;;
60730;SDS011;46580;52.114;11.674;2023-11-22T03:56:22;2.40;;;1.57;;
60730;SDS011;46580;52.114;11.674;2023-11-22T03:58:47;3.00;;;1.67;;
60730;SDS011;46580;52.114;11.674;2023-11-22T04:01:14;3.00;;;1.50;;
60730;SDS011;46580;52.114;11.674;2023-11-22T04:03:40;5.60;;;1.70;;
60730;SDS011;46580;52.114;11.674;2023-11-22T04:06:05;1.98;;;1.33;;
60730;SDS011;46580;52.114;11.674;2023-11-22T04:08:31;2.30;;;1.40;;
60730;SDS011;46580;52.114;11.674;2023-11-22T04:10:57;2.77;;;1.80;;
60730;SDS011;46580;52.114;11.674;2023-11-22T04:13:22;3.90;;;1.87;;
60730;SDS011;46580;52.114;11.674;2023-11-22T04:15:49;4.13;;;1.80;;
60730;SDS011;46580;52.114;11.674;2023-11-22T04:18:15;6.43;;;1.57;;
60730;SDS011;46580;52.114;11.674;2023-11-22T04:20:41;2.93;;;1.37;;
60730;SDS011;46580;52.114;11.674;2023-11-22T04:23:07;3.90;;;1.93;;
60730;SDS011;46580;52.114;11.674;2023-11-22T04:25:35;2.33;;;1.47;;
60730;SDS011;46580;52.114;11.674;2023-11-22T04:28:01;5.07;;;1.83;;
60730;SDS011;46580;52.114;11.674;2023-11-22T04:30:27;4.43;;;2.10;;
60730;SDS011;46580;52.114;11.674;2023-11-22T04:32:52;4.73;;;1.83;;
60730;SDS011;46580;52.114;11.674;2023-11-22T04:35:18;2.37;;;1.63;;
60730;SDS011;46580;52.114;11.674;2023-11-22T04:37:43;2.53;;;1.07;;
60730;SDS011;46580;52.114;11.674;2023-11-22T04:40:08;2.97;;;1.33;;
60730;SDS011;46580;52.114;11.674;2023-11-22T04:42:36;3.30;;;1.40;;
60730;SDS011;46580;52.114;11.674;2023-11-22T04:45:03;2.07;;;1.43;;
60730;SDS011;46580;52.114;11.674;2023-11-22T04:47:29;2.47;;;1.70;;
60730;SDS011;46580;52.114;11.674;2023-11-22T04:49:54;2.93;;;1.63;;
60730;SDS011;46580;52.114;11.674;2023-11-22T04:52:20;2.40;;;1.47;;
60730;SDS011;46580;52.114;11.674;2023-11-22T04:54:45;3.73;;;1.90;;
60730;SDS011;46580;52.114;11.674;2023-11-22T04:57:10;2.33;;;1.47;;
60730;SDS011;46580;52.114;11.674;2023-11-22T04:59:36;3.73;;;1.67;;
60730;SDS011;46580;52.114;11.674;2023-11-22T05:02:03;3.43;;;1.90;;
60730;SDS011;46580;52.114;11.674;2023-11-22T05:04:31;2.30;;;1.43;;
60730;SDS011;46580;52.114;11.674;2023-11-22T05:06:56;3.93;;;1.83;;
60730;SDS011;46580;52.114;11.674;2023-11-22T05:09:22;3.07;;;1.50;;
60730;SDS011;46580;52.114;11.674;2023-11-22T05:11:47;2.43;;;1.37;;
60730;SDS011;46580;52.114;11.674;2023-11-22T05:14:14;5.50;;;1.57;;
60730;SDS011;46580;52.114;11.674;2023-11-22T05:16:39;2.77;;;1.20;;
60730;SDS011;46580;52.114;11.674;2023-11-22T05:19:04;4.73;;;2.03;;
60730;SDS011;46580;52.114;11.674;2023-11-22T05:21:30;3.07;;;1.50;;
60730;SDS011;46580;52.114;11.674;2023-11-22T05:23:57;2.97;;;1.50;;
60730;SDS011;46580;52.114;11.674;2023-11-22T05:26:22;2.00;;;1.47;;
60730;SDS011;46580;52.114;11.674;2023-11-22T05:28:48;2.87;;;2.00;;
60730;SDS011;46580;52.114;11.674;2023-11-22T05:31:13;4.23;;;1.57;;
60730;SDS011;46580;52.114;11.674;2023-11-22T05:33:39;3.27;;;2.00;;
60730;SDS011;46580;52.114;11.674;2023-11-22T05:36:06;4.40;;;2.20;;
60730;SDS011;46580;52.114;11.674;2023-11-22T05:38:31;4.30;;;1.83;;
60730;SDS011;46580;52.114;11.674;2023-11-22T05:41:00;3.33;;;1.63;;
60730;SDS011;46580;52.114;11.674;2023-11-22T05:43:26;4.43;;;1.83;;
60730;SDS011;46580;52.114;11.674;2023-11-22T05:45:54;2.47;;;1.40;;
60730;SDS011;46580;52.114;11.674;2023-11-22T05:48:20;3.73;;;1.37;;
60730;SDS011;46580;52.114;11.674;2023-11-22T05:50:46;3.00;;;1.40;;
60730;SDS011;46580;52.114;11.674;2023-11-22T05:53:12;4.47;;;2.03;;
60730;SDS011;46580;52.114;11.674;2023-11-22T05:55:44;3.90;;;1.90;;
60730;SDS011;46580;52.114;11.674;2023-11-22T05:58:13;4.47;;;2.30;;
60730;SDS011;46580;52.114;11.674;2023-11-22T06:00:41;4.50;;;2.13;;
60730;SDS011;46580;52.114;11.674;2023-11-22T06:03:08;2.73;;;1.70;;
60730;SDS011;46580;52.114;11.674;2023-11-22T06:05:33;5.03;;;2.20;;
60730;SDS011;46580;52.114;11.674;2023-11-22T06:07:59;2.93;;;1.83;;
60730;SDS011;46580;52.114;11.674;2023-11-22T06:10:24;3.80;;;2.00;;
60730;SDS011;46580;52.114;11.674;2023-11-22T06:12:50;1.73;;;1.50;;
60730;SDS011;46580;52.114;11.674;2023-11-22T06:15:15;9.33;;;2.53;;
60730;SDS011;46580;52.114;11.674;2023-11-22T06:17:40;2.60;;;1.93;;
60730;SDS011;46580;52.114;11.674;2023-11-22T06:20:06;3.10;;;2.37;;
60730;SDS011;46580;52.114;11.674;2023-11-22T06:22:32;5.30;;;2.20;;
60730;SDS011;46580;52.114;11.674;2023-11-22T06:24:57;8.70;;;2.47;;
60730;SDS011;46580;52.114;11.674;2023-11-22T06:27:24;5.82;;;2.22;;
60730;SDS011;46580;52.114;11.674;2023-11-22T06:29:49;6.40;;;2.40;;
60730;SDS011;46580;52.114;11.674;2023-11-22T06:32:15;5.63;;;2.33;;
60730;SDS011;46580;52.114;11.674;2023-11-22T06:34:40;5.50;;;2.77;;
60730;SDS011;46580;52.114;11.674;2023-11-22T06:37:05;3.03;;;1.87;;
60730;SDS011;46580;52.114;11.674;2023-11-22T06:39:33;4.43;;;1.80;;
60730;SDS011;46580;52.114;11.674;2023-11-22T06:42:00;4.40;;;2.23;;
60730;SDS011;46580;52.114;11.674;2023-11-22T06:44:25;4.47;;;2.50;;
60730;SDS011;46580;52.114;11.674;2023-11-22T06:46:51;6.97;;;2.90;;
60730;SDS011;46580;52.114;11.674;2023-11-22T06:49:18;2.77;;;1.87;;
60730;SDS011;46580;52.114;11.674;2023-11-22T06:51:44;4.97;;;2.53;;
60730;SDS011;46580;52.114;11.674;2023-11-22T06:54:09;4.60;;;2.00;;
60730;SDS011;46580;52.114;11.674;2023-11-22T06:56:35;3.27;;;2.27;;
60730;SDS011;46580;52.114;11.674;2023-11-22T06:59:01;3.17;;;1.73;;
60730;SDS011;46580;52.114;11.674;2023-11-22T07:01:26;3.37;;;2.30;;
60730;SDS011;46580;52.114;11.674;2023-11-22T07:03:51;5.77;;;2.63;;
60730;SDS011;46580;52.114;11.674;2023-11-22T07:06:17;3.57;;;2.30;;
60730;SDS011;46580;52.114;11.674;2023-11-22T07:08:46;6.57;;;2.83;;
60730;SDS011;46580;52.114;11.674;2023-11-22T07:11:12;5.30;;;3.20;;
60730;SDS011;46580;52.114;11.674;2023-11-22T07:13:38;3.57;;;2.43;;
60730;SDS011;46580;52.114;11.674;2023-11-22T07:16:04;3.47;;;2.37;;
60730;SDS011;46580;52.114;11.674;2023-11-22T07:18:32;3.33;;;2.17;;
60730;SDS011;46580;52.114;11.674;2023-11-22T07:20:58;4.50;;;2.40;;
60730;SDS011;46580;52.114;11.674;2023-11-22T07:23:24;4.13;;;2.40;;
60730;SDS011;46580;52.114;11.674;2023-11-22T07:25:54;7.37;;;3.07;;
60730;SDS011;46580;52.114;11.674;2023-11-22T07:28:19;4.10;;;2.30;;
60730;SDS011;46580;52.114;11.674;2023-11-22T07:30:45;4.97;;;2.50;;
60730;SDS011;46580;52.114;11.674;2023-11-22T07:33:10;4.53;;;2.73;;
60730;SDS011;46580;52.114;11.674;2023-11-22T07:35:36;5.53;;;3.20;;
60730;SDS011;46580;52.114;11.674;2023-11-22T07:38:01;5.73;;;2.80;;
60730;SDS011;46580;52.114;11.674;2023-11-22T07:40:28;4.13;;;2.00;;
60730;SDS011;46580;52.114;11.674;2023-11-22T07:42:54;10.13;;;3.10;;
60730;SDS011;46580;52.114;11.674;2023-11-22T07:45:19;5.67;;;3.30;;
60730;SDS011;46580;52.114;11.674;2023-11-22T07:47:44;6.73;;;2.37;;
60730;SDS011;46580;52.114;11.674;2023-11-22T07:50:12;4.43;;;3.00;;
60730;SDS011;46580;52.114;11.674;2023-11-22T07:52:38;5.20;;;2.77;;
60730;SDS011;46580;52.114;11.674;2023-11-22T07:55:05;4.43;;;2.17;;
60730;SDS011;46580;52.114;11.674;2023-11-22T07:57:34;6.33;;;3.37;;
60730;SDS011;46580;52.114;11.674;2023-11-22T08:00:00;5.00;;;2.70;;
60730;SDS011;46580;52.114;11.674;2023-11-22T08:02:29;4.40;;;3.37;;
60730;SDS011;46580;52.114;11.674;2023-11-22T08:04:55;5.40;;;2.03;;
60730;SDS011;46580;52.114;11.674;2023-11-22T08:07:21;7.73;;;2.77;;
60730;SDS011;46580;52.114;11.674;2023-11-22T08:09:47;5.77;;;2.87;;
60730;SDS011;46580;52.114;11.674;2023-11-22T08:12:13;3.37;;;1.93;;
60730;SDS011;46580;52.114;11.674;2023-11-22T08:14:38;3.80;;;2.87;;
60730;SDS011;46580;52.114;11.674;2023-11-22T08:17:05;3.67;;;2.87;;
60730;SDS011;46580;52.114;11.674;2023-11-22T08:19:31;4.80;;;2.57;;
60730;SDS011;46580;52.114;11.674;2023-11-22T08:21:56;3.30;;;1.73;;
60730;SDS011;46580;52.114;11.674;2023-11-22T08:24:22;4.00;;;2.07;;
60730;SDS011;46580;52.114;11.674;2023-11-22T08:26:47;4.80;;;2.53;;
60730;SDS011;46580;52.114;11.674;2023-11-22T08:29:14;6.13;;;1.87;;
60730;SDS011;46580;52.114;11.674;2023-11-22T08:31:39;4.50;;;2.00;;
60730;SDS011;46580;52.114;11.674;2023-11-22T08:34:05;7.17;;;3.07;;
60730;SDS011;46580;52.114;11.674;2023-11-22T08:36:32;4.93;;;3.17;;
60730;SDS011;46580;52.114;11.674;2023-11-22T08:38:59;5.20;;;2.67;;
60730;SDS011;46580;52.114;11.674;2023-11-22T08:41:26;5.03;;;2.87;;
60730;SDS011;46580;52.114;11.674;2023-11-22T08:43:54;3.93;;;2.47;;
60730;SDS011;46580;52.114;11.674;2023-11-22T08:46:19;8.03;;;3.03;;
60730;SDS011;46580;52.114;11.674;2023-11-22T08:48:45;5.60;;;2.57;;
60730;SDS011;46580;52.114;11.674;2023-11-22T08:51:11;9.00;;;2.43;;
60730;SDS011;46580;52.114;11.674;2023-11-22T08:53:37;4.53;;;2.70;;
60730;SDS011;46580;52.114;11.674;2023-11-22T08:56:03;4.87;;;2.23;;
60730;SDS011;46580;52.114;11.674;2023-11-22T08:58:31;3.87;;;2.03;;
60730;SDS011;46580;52.114;11.674;2023-11-22T09:00:57;3.13;;;2.20;;
60730;SDS011;46580;52.114;11.674;2023-11-22T09:03:25;4.10;;;2.07;;
60730;SDS011;46580;52.114;11.674;2023-11-22T09:05:51;4.63;;;2.57;;
60730;SDS011;46580;52.114;11.674;2023-11-22T09:08:18;3.77;;;2.43;;
60730;SDS011;46580;52.114;11.674;2023-11-22T09:10:45;3.70;;;2.80;;
60730;SDS011;46580;52.114;11.674;2023-11-22T09:13:11;7.97;;;2.73;;
60730;SDS011;46580;52.114;11.674;2023-11-22T09:15:40;4.07;;;2.50;;
60730;SDS011;46580;52.114;11.674;2023-11-22T09:18:06;4.07;;;2.43;;
60730;SDS011;46580;52.114;11.674;2023-11-22T09:20:33;2.70;;;2.03;;
60730;SDS011;46580;52.114;11.674;2023-11-22T09:22:58;4.60;;;2.70;;
60730;SDS011;46580;52.114;11.674;2023-11-22T09:25:24;3.50;;;2.80;;
60730;SDS011;46580;52.114;11.674;2023-11-22T09:27:52;7.37;;;3.20;;
60730;SDS011;46580;52.114;11.674;2023-11-22T09:30:24;5.30;;;3.17;;
60730;SDS011;46580;52.114;11.674;2023-11-22T09:33:00;8.40;;;2.83;;
60730;SDS011;46580;52.114;11.674;2023-11-22T09:35:27;3.87;;;2.50;;
60730;SDS011;46580;52.114;11.674;2023-11-22T09:37:54;3.27;;;2.17;;
60730;SDS011;46580;52.114;11.674;2023-11-22T09:40:21;4.10;;;2.17;;
60730;SDS011;46580;52.114;11.674;2023-11-22T09:42:47;5.53;;;3.00;;
60730;SDS011;46580;52.114;11.674;2023-11-22T09:45:17;7.37;;;2.43;;
60730;SDS011;46580;52.114;11.674;2023-11-22T09:47:43;4.67;;;2.20;;
60730;SDS011;46580;52.114;11.674;2023-11-22T09:50:10;5.00;;;3.27;;
60730;SDS011;46580;52.114;11.674;2023-11-22T09:52:39;4.53;;;2.60;;
60730;SDS011;46580;52.114;11.674;2023-11-22T09:55:07;4.87;;;2.70;;
60730;SDS011;46580;52.114;11.674;2023-11-22T09:57:33;9.20;;;2.63;;
60730;SDS011;46580;52.114;11.674;2023-11-22T10:00:01;3.93;;;2.80;;
60730;SDS011;46580;52.114;11.674;2023-11-22T10:02:26;5.23;;;3.10;;
60730;SDS011;46580;52.114;11.674;2023-11-22T10:04:53;5.03;;;2.90;;
60730;SDS011;46580;52.114;11.674;2023-11-22T10:07:19;2.73;;;2.07;;
60730;SDS011;46580;52.114;11.674;2023-11-22T10:09:44;5.50;;;2.80;;
60730;SDS011;46580;52.114;11.674;2023-11-22T10:12:11;6.13;;;2.30;;
60730;SDS011;46580;52.114;11.674;2023-11-22T10:14:37;7.63;;;3.10;;
60730;SDS011;46580;52.114;11.674;2023-11-22T10:17:03;5.43;;;2.87;;
60730;SDS011;46580;52.114;11.674;2023-11-22T10:19:30;3.93;;;2.43;;
60730;SDS011;46580;52.114;11.674;2023-11-22T10:22:06;4.37;;;2.40;;
60730;SDS011;46580;52.114;11.674;2023-11-22T10:24:32;5.97;;;3.47;;
60730;SDS011;46580;52.114;11.674;2023-11-22T10:27:01;5.23;;;2.90;;
60730;SDS011;46580;52.114;11.674;2023-11-22T10:29:27;4.17;;;2.77;;
60730;SDS011;46580;52.114;11.674;2023-11-22T10:31:53;4.67;;;2.83;;
60730;SDS011;46580;52.114;11.674;2023-11-22T10:34:20;4.80;;;2.20;;
60730;SDS011;46580;52.114;11.674;2023-11-22T10:36:47;5.33;;;2.30;;
60730;SDS011;46580;52.114;11.674;2023-11-22T10:39:12;4.20;;;2.67;;
60730;SDS011;46580;52.114;11.674;2023-11-22T10:41:41;4.67;;;2.63;;
60730;SDS011;46580;52.114;11.674;2023-11-22T10:44:08;4.17;;;2.60;;
60730;SDS011;46580;52.114;11.674;2023-11-22T10:46:34;4.57;;;2.23;;
60730;SDS011;46580;52.114;11.674;2023-11-22T10:49:00;5.00;;;3.03;;
60730;SDS011;46580;52.114;11.674;2023-11-22T10:51:35;6.80;;;3.03;;
60730;SDS011;46580;52.114;11.674;2023-11-22T10:54:05;5.00;;;2.33;;
60730;SDS011;46580;52.114;11.674;2023-11-22T10:56:42;4.53;;;2.40;;
60730;SDS011;46580;52.114;11.674;2023-11-22T10:59:15;5.17;;;2.73;;
60730;SDS011;46580;52.114;11.674;2023-11-22T11:01:45;5.20;;;2.70;;
60730;SDS011;46580;52.114;11.674;2023-11-22T11:04:24;2.97;;;2.17;;
60730;SDS011;46580;52.114;11.674;2023-11-22T11:06:54;4.97;;;2.60;;
60730;SDS011;46580;52.114;11.674;2023-11-22T11:09:23;4.40;;;2.33;;
60730;SDS011;46580;52.114;11.674;2023-11-22T11:11:57;5.10;;;2.37;;
60730;SDS011;46580;52.114;11.674;2023-11-22T11:14:23;2.47;;;1.73;;
60730;SDS011;46580;52.114;11.674;2023-11-22T11:16:49;5.10;;;2.97;;
60730;SDS011;46580;52.114;11.674;2023-11-22T11:19:19;3.47;;;2.40;;
60730;SDS011;46580;52.114;11.674;2023-11-22T11:21:47;4.03;;;2.37;;
60730;SDS011;46580;52.114;11.674;2023-11-22T11:24:14;6.37;;;2.50;;
60730;SDS011;46580;52.114;11.674;2023-11-22T11:26:40;5.60;;;2.93;;
60730;SDS011;46580;52.114;11.674;2023-11-22T11:29:05;5.43;;;2.97;;
60730;SDS011;46580;52.114;11.674;2023-11-22T11:31:33;4.07;;;2.70;;
60730;SDS011;46580;52.114;11.674;2023-11-22T11:34:07;4.30;;;2.90;;
60730;SDS011;46580;52.114;11.674;2023-11-22T11:36:33;4.87;;;2.37;;
60730;SDS011;46580;52.114;11.674;2023-11-22T11:38:59;7.67;;;2.63;;
60730;SDS011;46580;52.114;11.674;2023-11-22T11:41:30;6.73;;;2.70;;
60730;SDS011;46580;52.114;11.674;2023-11-22T11:44:03;5.53;;;2.63;;
60730;SDS011;46580;52.114;11.674;2023-11-22T11:46:32;4.93;;;2.87;;
60730;SDS011;46580;52.114;11.674;2023-11-22T11:48:58;6.43;;;3.13;;
60730;SDS011;46580;52.114;11.674;2023-11-22T11:51:24;4.27;;;3.00;;
60730;SDS011;46580;52.114;11.674;2023-11-22T11:53:52;4.47;;;2.53;;
60730;SDS011;46580;52.114;11.674;2023-11-22T11:56:18;7.33;;;2.57;;
60730;SDS011;46580;52.114;11.674;2023-11-22T11:58:44;5.03;;;3.07;;
60730;SDS011;46580;52.114;11.674;2023-11-22T12:01:14;11.27;;;2.87;;
60730;SDS011;46580;52.114;11.674;2023-11-22T12:03:45;5.53;;;2.60;;
60730;SDS011;46580;52.114;11.674;2023-11-22T12:06:14;4.93;;;2.60;;
60730;SDS011;46580;52.114;11.674;2023-11-22T12:08:41;4.20;;;2.40;;
60730;SDS011;46580;52.114;11.674;2023-11-22T12:11:06;5.83;;;3.27;;
60730;SDS011;46580;52.114;11.674;2023-11-22T12:13:33;4.80;;;2.60;;
60730;SDS011;46580;52.114;11.674;2023-11-22T12:16:00;5.70;;;3.07;;
60730;SDS011;46580;52.114;11.674;2023-11-22T12:18:38;4.60;;;2.97;;
60730;SDS011;46580;52.114;11.674;2023-11-22T12:21:08;5.97;;;3.03;;
60730;SDS011;46580;52.114;11.674;2023-11-22T12:23:37;4.23;;;2.40;;
60730;SDS011;46580;52.114;11.674;2023-11-22T12:26:03;5.57;;;2.67;;
60730;SDS011;46580;52.114;11.674;2023-11-22T12:28:29;4.67;;;2.40;;
60730;SDS011;46580;52.114;11.674;2023-11-22T12:31:06;5.60;;;2.57;;
60730;SDS011;46580;52.114;11.674;2023-11-22T12:33:35;3.87;;;2.50;;
60730;SDS011;46580;52.114;11.674;2023-11-22T12:36:02;4.00;;;2.53;;
60730;SDS011;46580;52.114;11.674;2023-11-22T12:38:31;5.37;;;3.20;;
60730;SDS011;46580;52.114;11.674;2023-11-22T12:40:57;5.47;;;2.20;;
60730;SDS011;46580;52.114;11.674;2023-11-22T12:43:23;6.57;;;2.97;;
60730;SDS011;46580;52.114;11.674;2023-11-22T12:46:00;5.27;;;2.67;;
60730;SDS011;46580;52.114;11.674;2023-11-22T12:48:38;5.90;;;3.30;;
60730;SDS011;46580;52.114;11.674;2023-11-22T12:51:14;6.13;;;3.33;;
60730;SDS011;46580;52.114;11.674;2023-11-22T12:53:41;5.47;;;2.67;;
60730;SDS011;46580;52.114;11.674;2023-11-22T12:56:06;5.10;;;2.53;;
60730;SDS011;46580;52.114;11.674;2023-11-22T12:58:32;4.40;;;2.60;;
60730;SDS011;46580;52.114;11.674;2023-11-22T13:00:58;6.53;;;3.87;;
60730;SDS011;46580;52.114;11.674;2023-11-22T13:03:25;5.73;;;2.93;;
60730;SDS011;46580;52.114;11.674;2023-11-22T13:05:51;5.00;;;2.77;;
60730;SDS011;46580;52.114;11.674;2023-11-22T13:08:17;5.07;;;2.53;;
60730;SDS011;46580;52.114;11.674;2023-11-22T13:10:44;3.67;;;2.50;;
60730;SDS011;46580;52.114;11.674;2023-11-22T13:13:12;6.90;;;2.93;;
60730;SDS011;46580;52.114;11.674;2023-11-22T13:15:38;4.23;;;2.73;;
60730;SDS011;46580;52.114;11.674;2023-11-22T13:18:05;3.27;;;1.97;;
60730;SDS011;46580;52.114;11.674;2023-11-22T13:20:31;4.57;;;2.77;;
60730;SDS011;46580;52.114;11.674;2023-11-22T13:22:57;8.17;;;3.60;;
60730;SDS011;46580;52.114;11.674;2023-11-22T13:25:25;3.73;;;2.67;;
60730;SDS011;46580;52.114;11.674;2023-11-22T13:27:51;10.50;;;3.30;;
60730;SDS011;46580;52.114;11.674;2023-11-22T13:30:18;5.53;;;2.87;;
60730;SDS011;46580;52.114;11.674;2023-11-22T13:32:47;6.10;;;3.30;;
60730;SDS011;46580;52.114;11.674;2023-11-22T13:35:14;6.67;;;3.20;;
60730;SDS011;46580;52.114;11.674;2023-11-22T13:37:43;4.47;;;2.43;;
60730;SDS011;46580;52.114;11.674;2023-11-22T13:40:16;3.00;;;1.87;;
60730;SDS011;46580;52.114;11.674;2023-11-22T13:42:51;3.93;;;2.33;;
60730;SDS011;46580;52.114;11.674;2023-11-22T13:45:20;4.20;;;2.40;;
60730;SDS011;46580;52.114;11.674;2023-11-22T13:47:49;6.77;;;3.37;;
60730;SDS011;46580;52.114;11.674;2023-11-22T13:50:17;6.30;;;3.47;;
60730;SDS011;46580;52.114;11.674;2023-11-22T13:52:51;4.20;;;2.60;;
60730;SDS011;46580;52.114;11.674;2023-11-22T13:55:17;4.00;;;2.17;;
60730;SDS011;46580;52.114;11.674;2023-11-22T13:57:47;7.73;;;3.27;;
60730;SDS011;46580;52.114;11.674;2023-11-22T14:00:13;5.10;;;3.03;;
60730;SDS011;46580;52.114;11.674;2023-11-22T14:02:46;7.17;;;2.80;;
60730;SDS011;46580;52.114;11.674;2023-11-22T14:05:13;7.70;;;3.70;;
60730;SDS011;46580;52.114;11.674;2023-11-22T14:07:40;7.70;;;2.80;;
60730;SDS011;46580;52.114;11.674;2023-11-22T14:10:06;5.60;;;2.70;;
60730;SDS011;46580;52.114;11.674;2023-11-22T14:12:32;4.97;;;2.20;;
60730;SDS011;46580;52.114;11.674;2023-11-22T14:14:58;3.90;;;2.57;;
60730;SDS011;46580;52.114;11.674;2023-11-22T14:17:24;3.80;;;2.37;;
60730;SDS011;46580;52.114;11.674;2023-11-22T14:19:51;6.50;;;3.00;;
60730;SDS011;46580;52.114;11.674;2023-11-22T14:22:18;5.37;;;3.07;;
60730;SDS011;46580;52.114;11.674;2023-11-22T14:24:43;6.67;;;3.10;;
60730;SDS011;46580;52.114;11.674;2023-11-22T14:27:10;7.18;;;2.60;;
60730;SDS011;46580;52.114;11.674;2023-11-22T14:29:37;4.57;;;2.53;;